createdAt,value
2022-08-07T00:01:44.588Z,100270.65
2022-08-07T00:03:53.271Z,100270.39
2022-08-07T00:06:29.438Z,100270.27
2022-08-07T00:09:00.377Z,100268.73
2022-08-07T00:11:54.252Z,100268.91
2022-08-07T00:14:25.485Z,100269.05
2022-08-07T00:16:58.494Z,100264.08
2022-08-07T00:19:26.184Z,100268.68
2022-08-07T00:22:12.566Z,100270.28
2022-08-07T00:24:51.907Z,100272.61
2022-08-07T00:27:19.244Z,100274.23
2022-08-07T00:29:49.908Z,100273.80
2022-08-07T00:32:17.055Z,100274.58
2022-08-07T00:34:50.701Z,100272.48
2022-08-07T00:37:17.917Z,100272.61
2022-08-07T00:39:45.428Z,100277.73
2022-08-07T00:42:29.042Z,100276.55
2022-08-07T00:44:56.275Z,100278.67
2022-08-07T00:48:09.203Z,100275.29
2022-08-07T00:50:21.368Z,100275.72
2022-08-07T00:52:57.257Z,100275.05
2022-08-07T00:55:46.594Z,100277.45
2022-08-07T00:58:12.143Z,100278.84
2022-08-07T01:00:39.097Z,100278.52
2022-08-07T01:03:25.462Z,100281.42
2022-08-07T01:06:09.462Z,100279.40
2022-08-07T01:08:38.443Z,100276.08
2022-08-07T01:12:04.996Z,100274.64
2022-08-07T01:14:05.418Z,100274.77
2022-08-07T01:16:32.371Z,100273.38
2022-08-07T01:18:59.532Z,100276.02
2022-08-07T01:21:28.427Z,100276.03
2022-08-07T01:23:55.582Z,100267.55
2022-08-07T01:26:22.795Z,100272.25
2022-08-07T01:28:53.931Z,100271.47
2022-08-07T01:31:21.448Z,100270.45
2022-08-07T01:33:56.265Z,100267.87
2022-08-07T01:36:33.615Z,100268.83
2022-08-07T01:39:01.261Z,100265.77
2022-08-07T01:41:32.611Z,100265.50
2022-08-07T01:43:59.477Z,100266.27
2022-08-07T01:46:28.752Z,100266.55
2022-08-07T01:48:59.835Z,100266.11
2022-08-07T01:52:03.158Z,100264.63
2022-08-07T01:54:19.289Z,100268.07
2022-08-07T01:57:06.831Z,100270.38
2022-08-07T01:59:54.581Z,100270.43
2022-08-07T02:03:05.606Z,100270.73
2022-08-07T02:05:47.627Z,100269.52
2022-08-07T02:08:10.598Z,100268.98
2022-08-07T02:10:42.279Z,100269.30
2022-08-07T02:13:09.462Z,100268.48
2022-08-07T02:15:36.886Z,100266.99
2022-08-07T02:18:04.349Z,100272.42
2022-08-07T02:20:33.550Z,100272.64
2022-08-07T02:23:04.255Z,100270.68
2022-08-07T02:26:31.669Z,100273.67
2022-08-07T02:28:25.799Z,100276.70
2022-08-07T02:30:54.690Z,100279.60
2022-08-07T02:33:21.703Z,100280.92
2022-08-07T02:36:29.456Z,100279.63
2022-08-07T02:38:40.184Z,100282.48
2022-08-07T02:41:21.532Z,100280.35
2022-08-07T02:43:49.160Z,100285.06
2022-08-07T02:46:16.902Z,100290.02
2022-08-07T02:48:54.634Z,100290.61
2022-08-07T02:51:41.790Z,100295.29
2022-08-07T02:54:09.706Z,100297.94
2022-08-07T02:56:36.758Z,100301.91
2022-08-07T02:59:09.744Z,100300.14
2022-08-07T03:01:39.850Z,100297.55
2022-08-07T03:04:12.935Z,100299.86
2022-08-07T03:06:44.871Z,100298.84
2022-08-07T03:09:13.996Z,100303.16
2022-08-07T03:11:51.946Z,100301.47
2022-08-07T03:14:24.545Z,100302.11
2022-08-07T03:16:52.533Z,100300.11
2022-08-07T03:19:20.074Z,100301.25
2022-08-07T03:21:50.745Z,100300.62
2022-08-07T03:24:25.896Z,100298.95
2022-08-07T03:26:58.422Z,100304.41
2022-08-07T03:29:25.597Z,100305.00
2022-08-07T03:31:54.699Z,100308.34
2022-08-07T03:34:22.918Z,100304.58
2022-08-07T03:36:54.537Z,100307.58
2022-08-07T03:39:46.571Z,100308.20
2022-08-07T03:42:08.542Z,100305.90
2022-08-07T03:44:36.688Z,100306.41
2022-08-07T03:47:14.067Z,100309.63
2022-08-07T03:49:47.677Z,100312.09
2022-08-07T03:52:22.572Z,100304.52
2022-08-07T03:55:06.890Z,100306.69
2022-08-07T03:58:34.647Z,100310.29
2022-08-07T04:00:29.131Z,100305.08
2022-08-07T04:02:57.328Z,100301.89
2022-08-07T04:05:39.741Z,100302.58
2022-08-07T04:08:11.960Z,100305.19
2022-08-07T04:10:40.099Z,100304.79
2022-08-07T04:13:15.421Z,100306.36
2022-08-07T04:15:42.948Z,100302.77
2022-08-07T04:18:58.033Z,100302.10
2022-08-07T04:20:59.980Z,100305.64
2022-08-07T04:23:43.830Z,100308.96
2022-08-07T04:26:14.733Z,100306.89
2022-08-07T04:28:45.065Z,100304.34
2022-08-07T04:31:20.308Z,100307.61
2022-08-07T04:33:58.864Z,100304.55
2022-08-07T04:36:26.230Z,100302.55
2022-08-07T04:38:53.661Z,100298.52
2022-08-07T04:41:20.919Z,100297.83
2022-08-07T04:44:11.697Z,100302.62
2022-08-07T04:46:59.342Z,100301.79
2022-08-07T04:49:57.509Z,100302.89
2022-08-07T04:52:51.134Z,100309.79
2022-08-07T04:58:09.708Z,100310.33
2022-08-07T04:58:49.723Z,100306.85
2022-08-07T05:01:37.908Z,100309.31
2022-08-07T05:04:47.093Z,100308.97
2022-08-07T05:07:48.092Z,100310.63
2022-08-07T05:10:21.965Z,100310.16
2022-08-07T05:12:55.249Z,100314.12
2022-08-07T05:15:27.642Z,100317.65
2022-08-07T05:17:57.905Z,100318.05
2022-08-07T05:20:27.476Z,100318.45
2022-08-07T05:22:56.987Z,100321.14
2022-08-07T05:25:25.866Z,100320.19
2022-08-07T05:28:20.710Z,100321.14
2022-08-07T05:30:52.350Z,100321.86
2022-08-07T05:33:21.217Z,100317.56
2022-08-07T05:35:52.774Z,100319.85
2022-08-07T05:39:01.294Z,100320.27
2022-08-07T05:41:14.476Z,100325.77
2022-08-07T05:44:06.768Z,100329.09
2022-08-07T05:46:31.355Z,100332.70
2022-08-07T05:48:59.651Z,100330.23
2022-08-07T05:51:31.753Z,100329.63
2022-08-07T05:54:09.680Z,100328.18
2022-08-07T05:56:51.574Z,100329.73
2022-08-07T05:59:19.373Z,100331.13
2022-08-07T06:01:48.743Z,100333.64
2022-08-07T06:04:17.446Z,100327.80
2022-08-07T06:06:45.915Z,100329.13
2022-08-07T06:09:15.642Z,100328.93
2022-08-07T06:11:42.914Z,100330.43
2022-08-07T06:14:12.437Z,100328.70
2022-08-07T06:16:50.637Z,100329.27
2022-08-07T06:19:57.590Z,100333.45
2022-08-07T06:22:14.499Z,100331.79
2022-08-07T06:24:57.808Z,100332.43
2022-08-07T06:28:00.077Z,100332.70
2022-08-07T06:30:32.238Z,100333.19
2022-08-07T06:33:00.915Z,100331.49
2022-08-07T06:35:30.660Z,100330.10
2022-08-07T06:38:20.604Z,100329.61
2022-08-07T06:40:50.301Z,100326.67
2022-08-07T06:43:21.270Z,100325.31
2022-08-07T06:45:49.318Z,100321.01
2022-08-07T06:48:16.354Z,100319.52
2022-08-07T06:50:54.063Z,100316.46
2022-08-07T06:55:27.214Z,100316.89
2022-08-07T06:56:15.474Z,100316.29
2022-08-07T07:00:11.379Z,100316.73
2022-08-07T07:01:33.329Z,100316.23
2022-08-07T07:04:32.995Z,100316.77
2022-08-07T07:07:01.187Z,100317.54
2022-08-07T07:09:31.384Z,100313.58
2022-08-07T07:12:16.545Z,100313.17
2022-08-07T07:14:48.879Z,100312.52
2022-08-07T07:17:28.806Z,100309.80
2022-08-07T07:20:15.546Z,100312.66
2022-08-07T07:24:05.184Z,100312.43
2022-08-07T07:26:32.898Z,100312.84
2022-08-07T07:28:29.601Z,100312.30
2022-08-07T07:31:21.601Z,100315.60
2022-08-07T07:33:56.443Z,100319.59
2022-08-07T07:36:32.582Z,100320.33
2022-08-07T07:39:05.427Z,100322.00
2022-08-07T07:41:50.640Z,100324.55
2022-08-07T07:44:26.058Z,100322.92
2022-08-07T07:46:57.237Z,100317.98
2022-08-07T07:50:29.628Z,100316.20
2022-08-07T07:52:21.385Z,100319.58
2022-08-07T07:54:52.286Z,100319.91
2022-08-07T07:57:44.133Z,100324.12
2022-08-07T08:00:09.526Z,100321.83
2022-08-07T08:02:36.428Z,100320.76
2022-08-07T08:05:05.077Z,100321.38
2022-08-07T08:07:35.929Z,100317.15
2022-08-07T08:10:10.028Z,100317.88
2022-08-07T08:12:58.886Z,100321.98
2022-08-07T08:15:57.545Z,100319.84
2022-08-07T08:18:19.904Z,100321.91
2022-08-07T08:20:47.925Z,100322.09
2022-08-07T08:23:35.384Z,100321.02
2022-08-07T08:26:22.122Z,100320.85
2022-08-07T08:28:53.572Z,100318.70
2022-08-07T08:31:58.327Z,100319.57
2022-08-07T08:34:12.460Z,100315.94
2022-08-07T08:36:57.571Z,100317.52
2022-08-07T08:39:25.829Z,100312.73
2022-08-07T08:42:11.897Z,100317.58
2022-08-07T08:45:13.511Z,100313.05
2022-08-07T08:48:10.743Z,100314.88
2022-08-07T08:50:41.152Z,100309.36
2022-08-07T08:53:31.230Z,100314.56
2022-08-07T08:56:02.572Z,100309.04
2022-08-07T08:58:50.423Z,100304.61
2022-08-07T09:01:22.943Z,100303.91
2022-08-07T09:04:16.676Z,100305.21
2022-08-07T09:07:03.485Z,100303.11
2022-08-07T09:09:57.005Z,100302.63
2022-08-07T09:12:31.341Z,100301.45
2022-08-07T09:16:24.533Z,100299.70
2022-08-07T09:18:27.929Z,100301.55
2022-08-07T09:21:06.466Z,100299.56
2022-08-07T09:24:32.816Z,100293.23
2022-08-07T09:27:04.650Z,100296.52
2022-08-07T09:30:06.239Z,100298.02
2022-08-07T09:32:31.041Z,100294.49
2022-08-07T09:36:05.425Z,100291.80
2022-08-07T09:38:50.186Z,100288.00
2022-08-07T09:41:59.156Z,100291.92
2022-08-07T09:47:24.545Z,100290.71
2022-08-07T09:47:55.587Z,100282.94
2022-08-07T09:50:36.736Z,100294.70
2022-08-07T09:53:08.811Z,100290.56
2022-08-07T09:56:11.058Z,100285.66
2022-08-07T09:59:14.099Z,100288.10
2022-08-07T10:01:52.213Z,100286.13
2022-08-07T10:04:47.839Z,100285.90
2022-08-07T10:07:55.090Z,100285.22
2022-08-07T10:10:30.451Z,100284.95
2022-08-07T10:14:00.790Z,100289.96
2022-08-07T10:16:49.100Z,100286.88
2022-08-07T10:19:31.918Z,100279.92
2022-08-07T10:22:43.410Z,100276.33
2022-08-07T10:25:42.970Z,100274.20
2022-08-07T10:28:49.616Z,100273.19
2022-08-07T10:31:48.814Z,100269.90
2022-08-07T10:34:45.345Z,100270.67
2022-08-07T10:38:15.592Z,100269.80
2022-08-07T10:40:51.122Z,100265.48
2022-08-07T10:43:34.215Z,100271.94
2022-08-07T10:46:07.942Z,100270.73
2022-08-07T10:48:48.823Z,100262.88
2022-08-07T10:51:39.304Z,100263.68
2022-08-07T10:54:21.741Z,100265.22
2022-08-07T10:56:50.768Z,100269.10
2022-08-07T10:59:55.675Z,100267.37
2022-08-07T11:02:35.125Z,100262.08
2022-08-07T11:05:19.198Z,100251.11
2022-08-07T11:08:16.408Z,100252.59
2022-08-07T11:10:52.398Z,100244.83
2022-08-07T11:14:44.215Z,100242.58
2022-08-07T11:16:39.013Z,100241.55
2022-08-07T11:19:27.256Z,100243.79
2022-08-07T11:22:27.395Z,100243.72
2022-08-07T11:25:07.226Z,100241.45
2022-08-07T11:28:01.398Z,100241.79
2022-08-07T11:30:41.543Z,100240.27
2022-08-07T11:33:58.663Z,100235.11
2022-08-07T11:36:20.542Z,100231.00
2022-08-07T11:39:10.069Z,100233.28
2022-08-07T11:42:01.973Z,100233.55
2022-08-07T11:44:52.283Z,100240.05
2022-08-07T11:47:38.820Z,100238.58
2022-08-07T11:50:35.411Z,100234.27
2022-08-07T11:53:57.012Z,100230.21
2022-08-07T11:56:52.258Z,100218.61
2022-08-07T12:00:10.296Z,100216.17
2022-08-07T12:02:56.057Z,100204.02
2022-08-07T12:05:47.199Z,100201.89
2022-08-07T12:08:34.787Z,100206.73
2022-08-07T12:11:21.201Z,100204.35
2022-08-07T12:14:02.368Z,100205.41
2022-08-07T12:16:31.684Z,100201.86
2022-08-07T12:19:09.296Z,100208.75
2022-08-07T12:22:55.920Z,100215.89
2022-08-07T12:26:03.160Z,100213.20
2022-08-07T12:28:57.830Z,100212.42
2022-08-07T12:31:52.499Z,100211.73
2022-08-07T12:34:22.738Z,100210.95
2022-08-07T12:36:54.043Z,100211.97
2022-08-07T12:39:43.961Z,100211.49
2022-08-07T12:42:13.024Z,100215.27
2022-08-07T12:44:42.902Z,100217.37
2022-08-07T12:47:30.684Z,100218.85
2022-08-07T12:50:34.258Z,100213.09
2022-08-07T12:53:18.831Z,100217.48
2022-08-07T12:56:02.626Z,100216.07
2022-08-07T12:58:35.509Z,100212.07
2022-08-07T13:01:07.843Z,100208.66
2022-08-07T13:04:04.669Z,100210.86
2022-08-07T13:07:01.293Z,100202.56
2022-08-07T13:10:29.361Z,100200.73
2022-08-07T13:12:57.137Z,100197.56
2022-08-07T13:15:31.659Z,100196.70
2022-08-07T13:18:26.655Z,100197.33
2022-08-07T13:21:13.970Z,100195.88
2022-08-07T13:24:25.966Z,100198.36
2022-08-07T13:27:08.469Z,100198.13
2022-08-07T13:29:47.749Z,100195.55
2022-08-07T13:32:31.387Z,100194.50
2022-08-07T13:34:59.931Z,100194.14
2022-08-07T13:38:13.783Z,100194.35
2022-08-07T13:40:47.037Z,100197.55
2022-08-07T13:43:16.304Z,100195.61
2022-08-07T13:46:21.233Z,100196.41
2022-08-07T13:48:38.749Z,100196.15
2022-08-07T13:51:27.497Z,100194.21
2022-08-07T13:54:05.216Z,100195.02
2022-08-07T13:56:36.404Z,100193.23
2022-08-07T13:59:13.739Z,100190.70
2022-08-07T14:01:51.542Z,100193.33
2022-08-07T14:04:36.190Z,100198.52
2022-08-07T14:07:09.156Z,100200.86
2022-08-07T14:10:01.534Z,100200.86
2022-08-07T14:12:54.499Z,100201.39
2022-08-07T14:15:43.066Z,100199.91
2022-08-07T14:18:28.993Z,100194.70
2022-08-07T14:22:41.173Z,100192.30
2022-08-07T14:24:07.463Z,100195.73
2022-08-07T14:26:58.500Z,100196.64
2022-08-07T14:30:06.730Z,100194.48
2022-08-07T14:32:19.558Z,100189.24
2022-08-07T14:34:48.845Z,100190.26
2022-08-07T14:37:18.039Z,100191.02
2022-08-07T14:40:18.192Z,100193.70
2022-08-07T14:43:01.349Z,100194.95
2022-08-07T14:45:48.717Z,100193.39
2022-08-07T14:48:20.408Z,100194.67
2022-08-07T14:50:52.326Z,100194.90
2022-08-07T14:54:05.532Z,100193.17
2022-08-07T14:56:13.919Z,100188.88
2022-08-07T14:58:45.267Z,100189.86
2022-08-07T15:01:22.059Z,100187.66
2022-08-07T15:03:52.171Z,100184.21
2022-08-07T15:06:25.354Z,100183.73
2022-08-07T15:12:02.120Z,100180.54
2022-08-07T15:14:31.321Z,100178.84
2022-08-07T15:17:04.376Z,100178.81
2022-08-07T15:22:29.469Z,100173.84
2022-08-07T15:25:16.942Z,100172.97
2022-08-07T15:28:32.123Z,100174.35
2022-08-07T15:33:34.056Z,100176.19
2022-08-07T15:38:59.551Z,100178.00
2022-08-07T15:44:19.478Z,100180.45
2022-08-07T15:46:52.582Z,100178.98
2022-08-07T15:49:25.615Z,100178.55
2022-08-07T15:52:13.646Z,100181.01
2022-08-07T15:54:42.795Z,100184.45
2022-08-07T15:57:40.249Z,100186.52
2022-08-07T16:00:31.099Z,100186.86
2022-08-07T16:03:04.062Z,100189.89
2022-08-07T16:05:31.645Z,100186.52
2022-08-07T16:08:31.069Z,100192.27
2022-08-07T16:11:01.284Z,100192.52
2022-08-07T16:13:59.706Z,100193.69
2022-08-07T16:16:48.023Z,100197.37
2022-08-07T16:20:04.746Z,100205.64
2022-08-07T16:22:55.014Z,100208.74
2022-08-07T16:25:54.099Z,100209.06
2022-08-07T16:30:08.293Z,100213.19
2022-08-07T16:31:51.817Z,100216.65
2022-08-07T16:34:27.119Z,100217.84
2022-08-07T16:38:04.941Z,100220.04
2022-08-07T16:41:01.654Z,100223.94
2022-08-07T16:44:02.420Z,100225.38
2022-08-07T16:47:07.591Z,100227.54
2022-08-07T16:50:29.225Z,100225.06
2022-08-07T16:53:20.593Z,100228.12
2022-08-07T16:56:07.068Z,100227.98
2022-08-07T16:59:14.740Z,100225.61
2022-08-07T17:01:50.502Z,100229.21
2022-08-07T17:04:51.149Z,100233.98
2022-08-07T17:07:51.596Z,100233.41
2022-08-07T17:10:38.605Z,100232.32
2022-08-07T17:13:41.135Z,100235.57
2022-08-07T17:16:34.858Z,100239.45
2022-08-07T17:20:00.922Z,100240.29
2022-08-07T17:22:38.102Z,100246.73
2022-08-07T17:25:15.681Z,100251.67
2022-08-07T17:27:55.974Z,100253.44
2022-08-07T17:30:26.936Z,100259.56
2022-08-07T17:34:08.266Z,100262.77
2022-08-07T17:36:26.100Z,100266.03
2022-08-07T17:39:22.566Z,100270.79
2022-08-07T17:42:04.157Z,100270.48
2022-08-07T17:44:50.157Z,100275.79
2022-08-07T17:48:15.028Z,100282.55
2022-08-07T17:51:11.482Z,100285.42
2022-08-07T17:54:00.079Z,100288.76
2022-08-07T17:56:36.522Z,100292.14
2022-08-07T17:59:25.914Z,100297.55
2022-08-07T18:02:56.421Z,100298.95
2022-08-07T18:06:03.070Z,100302.55
2022-08-07T18:09:01.385Z,100306.41
2022-08-07T18:12:08.389Z,100307.98
2022-08-07T18:14:46.285Z,100313.33
2022-08-07T18:18:45.837Z,100318.33
2022-08-07T18:21:09.614Z,100319.59
2022-08-07T18:23:35.252Z,100320.11
2022-08-07T18:26:01.285Z,100323.55
2022-08-07T18:28:58.482Z,100329.19
2022-08-07T18:32:01.457Z,100331.44
2022-08-07T18:34:53.270Z,100334.33
2022-08-07T18:38:57.602Z,100339.19
2022-08-07T18:40:42.359Z,100342.33
2022-08-07T18:43:36.832Z,100350.31
2022-08-07T18:46:33.619Z,100353.67
2022-08-07T18:50:32.866Z,100358.25
2022-08-07T18:52:33.855Z,100360.42
2022-08-07T18:55:40.536Z,100368.08
2022-08-07T18:58:18.148Z,100360.96
2022-08-07T19:00:54.374Z,100364.02
2022-08-07T19:03:39.118Z,100360.19
2022-08-07T19:06:16.381Z,100360.44
2022-08-07T19:08:56.118Z,100363.33
2022-08-07T19:12:04.314Z,100365.63
2022-08-07T19:16:02.311Z,100367.50
2022-08-07T19:18:34.992Z,100370.52
2022-08-07T19:21:44.336Z,100377.19
2022-08-07T19:24:02.972Z,100379.58
2022-08-07T19:27:09.069Z,100380.41
2022-08-07T19:30:58.578Z,100378.98
2022-08-07T19:32:28.838Z,100386.02
2022-08-07T19:35:22.594Z,100391.27
2022-08-07T19:37:56.373Z,100393.92
2022-08-07T19:40:31.165Z,100393.77
2022-08-07T19:43:00.152Z,100402.70
2022-08-07T19:46:07.246Z,100406.67
2022-08-07T19:48:24.344Z,100410.02
2022-08-07T19:50:53.114Z,100411.66
2022-08-07T19:54:32.371Z,100413.73
2022-08-07T19:56:15.105Z,100418.11
2022-08-07T19:58:58.032Z,100420.55
2022-08-07T20:01:52.850Z,100422.30
2022-08-07T20:04:31.951Z,100426.68
2022-08-07T20:07:10.313Z,100428.64
2022-08-07T20:10:34.183Z,100435.03
2022-08-07T20:12:43.038Z,100440.36
2022-08-07T20:15:18.793Z,100440.14
2022-08-07T20:18:01.550Z,100438.98
2022-08-07T20:20:31.377Z,100440.39
2022-08-07T20:23:23.256Z,100442.05
2022-08-07T20:25:50.892Z,100441.67
2022-08-07T20:28:21.096Z,100443.84
2022-08-07T20:30:58.270Z,100442.30
2022-08-07T20:33:37.716Z,100441.91
2022-08-07T20:36:07.187Z,100440.88
2022-08-07T20:38:35.003Z,100439.42
2022-08-07T20:41:03.876Z,100439.73
2022-08-07T20:43:33.150Z,100437.55
2022-08-07T20:46:26.777Z,100430.89
2022-08-07T20:49:55.146Z,100430.42
2022-08-07T20:51:40.597Z,100429.66
2022-08-07T20:54:29.754Z,100433.31
2022-08-07T20:57:02.014Z,100432.98
2022-08-07T21:00:08.014Z,100434.54
2022-08-07T21:02:40.341Z,100434.89
2022-08-07T21:05:10.276Z,100441.69
2022-08-07T21:07:49.465Z,100443.73
2022-08-07T21:10:25.062Z,100439.02
2022-08-07T21:12:59.641Z,100443.09
2022-08-07T21:15:47.631Z,100444.59
2022-08-07T21:18:25.551Z,100447.80
2022-08-07T21:21:00.766Z,100450.08
2022-08-07T21:23:56.963Z,100450.86
2022-08-07T21:26:35.689Z,100451.39
2022-08-07T21:29:15.707Z,100448.04
2022-08-07T21:32:46.608Z,100448.64
2022-08-07T21:34:59.843Z,100451.19
2022-08-07T21:37:59.526Z,100454.31
2022-08-07T21:40:41.905Z,100453.93
2022-08-07T21:43:25.382Z,100454.80
2022-08-07T21:46:33.114Z,100451.60
2022-08-07T21:49:04.736Z,100454.53
2022-08-07T21:52:13.552Z,100456.43
2022-08-07T21:55:02.413Z,100454.38
2022-08-07T21:57:52.018Z,100453.14
2022-08-07T22:00:25.097Z,100451.28
2022-08-07T22:03:05.763Z,100450.20
2022-08-07T22:05:57.065Z,100456.17
2022-08-07T22:08:27.595Z,100457.48
2022-08-07T22:11:00.096Z,100459.48
2022-08-07T22:13:50.448Z,100457.50
2022-08-07T22:16:43.877Z,100459.30
2022-08-07T22:19:36.976Z,100457.71
2022-08-07T22:22:21.140Z,100461.10
2022-08-07T22:25:07.744Z,100457.20
2022-08-07T22:28:19.792Z,100456.21
2022-08-07T22:30:52.029Z,100451.03
2022-08-07T22:33:52.864Z,100448.39
2022-08-07T22:36:32.141Z,100449.01
2022-08-07T22:39:28.158Z,100445.27
2022-08-07T22:42:29.453Z,100446.62
2022-08-07T22:45:01.947Z,100446.80
2022-08-07T22:47:45.519Z,100447.02
2022-08-07T22:50:35.803Z,100444.79
2022-08-07T22:54:07.672Z,100441.45
2022-08-07T22:56:34.526Z,100443.85
2022-08-07T22:59:10.888Z,100446.23
2022-08-07T23:01:58.966Z,100448.38
2022-08-07T23:04:58.252Z,100450.50
2022-08-07T23:07:58.258Z,100450.38
2022-08-07T23:10:52.648Z,100453.01
2022-08-07T23:13:49.151Z,100453.75
2022-08-07T23:16:46.432Z,100455.86
2022-08-07T23:19:57.926Z,100461.70
2022-08-07T23:22:33.987Z,100461.85
2022-08-07T23:25:29.455Z,100463.71
2022-08-07T23:28:32.619Z,100459.98
2022-08-07T23:32:48.939Z,100462.70
2022-08-07T23:34:21.847Z,100468.17
2022-08-07T23:37:37.828Z,100470.08
2022-08-07T23:40:35.177Z,100468.80
2022-08-07T23:43:40.163Z,100468.23
2022-08-07T23:46:34.846Z,100464.31
2022-08-07T23:49:19.886Z,100463.57
2022-08-07T23:53:00.712Z,100464.73
2022-08-07T23:54:51.971Z,100467.31
2022-08-07T23:57:52.513Z,100465.30
